Falun, KS (67442)

1:14 PM CDT on July 23, 2016 (GMT -0500)
Lindsborg Mayor - N. Second | | Change Station
Active Advisory: Excessive Heat Warning

Elev 1348 ft 38.58 °N, 97.68 °W | Updated 1 minute ago

Clear
Clear
95.2 °F
Feels Like 102 °F
N
4.2
Wind Variable Wind from South

Today
High -- | Low -- °F
--% Chance of Precip.
Yesterday
High -- | Low -- °F
Precip. -- in
Pressure 29.80 in
Visibility 10.0 miles
Clouds Clear
Heat Index 102 °F
Dew Point 70 °F
Humidity 45%
Rainfall 0.00 in
Snow Depth Not available.
6:25 AM 8:49 PM
Waning Gibbous, 83% visible
METAR KSLN 231753Z 17017G23KT 10SM CLR 37/19 A2985 RMK AO2 SLP089 T03720194 10372 20267 56021
Pressure 29.80 in
Visibility 10.0 miles
Clouds Clear
Heat Index 102 °F
Dew Point 70 °F
Humidity 45%
Rainfall 0.00 in
Snow Depth Not available.
6:25 AM 8:49 PM
Waning Gibbous, 83% visible
METAR KSLN 231753Z 17017G23KT 10SM CLR 37/19 A2985 RMK AO2 SLP089 T03720194 10372 20267 56021

10-Day Weather Forecast

Almanac

Astronomy

Jul. 23, 2016 Rise Set
Actual Time
Civil Twilight
Nautical Twilight
Astronomical Twilight
Moon
Length of Visible Light
Length of Day
Tomorrow will be .
, % of the Moon is Illuminated

Today's Extremes

State Highs State Lows

Community

WunderPhotos

Upload Photos

1,926,881 photos uploaded!

WunderBlog® & News

Nearby

Air Quality

  Air Quality AQ Index Pollutant
Not available.

Snow Depth

Station Depth Elevation

Earthquake Activity

City Distance Mag. Time & Date
Minimum magnitude displayed is 2.5.

Coastal Water Temperatures

Place Temperature

Stations

Nearby Weather Stations

Station Location Temp. Windchill Dew Point Humidity Wind Precip. Elev Updated Type
                   

Watches & Warnings

Excessive Heat Warning
Issued: 3:17 AM CDT Jul. 23, 2016 – National Weather Service

... Excessive heat warning now in effect until 8 PM CDT Sunday...

* heat index values... of 105 to 109 degrees.

* Timing... this afternoon and Sunday afternoon.

* Impacts... the heat and humidity will make heat related illness
such as heat stress... heat cramps... and possibly heat stroke
more likely.

Precautionary/preparedness actions...

An excessive heat warning means that a prolonged period of
dangerously hot temperatures will occur. The combination of hot
temperatures and high humidity will create a dangerous situation
where heat illnesses are likely. Drink plenty of fluids and stay
in an air conditioned room. Stay out of the sun and check up on
relatives and neighbors. Temperatures within vehicles can become
lethal in a few minutes. Never leave children or pets in
vehicles. Remember to beat the heat... check the backseat.